sensor_id;sensor_type;location;lat;lon;timestamp;temperature;humidity
4556;DHT22;2290;48.674;9.018;2023-06-26T00:01:57;20.60;97.30
4556;DHT22;2290;48.674;9.018;2023-06-26T00:04:47;20.60;97.30
4556;DHT22;2290;48.674;9.018;2023-06-26T00:17:57;20.00;98.60
4556;DHT22;2290;48.674;9.018;2023-06-26T00:21:05;20.00;98.70
4556;DHT22;2290;48.674;9.018;2023-06-26T00:35:06;20.00;99.10
4556;DHT22;2290;48.674;9.018;2023-06-26T00:41:57;19.80;99.40
4556;DHT22;2290;48.674;9.018;2023-06-26T00:48:51;19.60;99.80
4556;DHT22;2290;48.674;9.018;2023-06-26T00:52:35;19.60;99.80
4556;DHT22;2290;48.674;9.018;2023-06-26T00:56:04;19.60;99.90
4556;DHT22;2290;48.674;9.018;2023-06-26T01:00:05;19.60;99.90
4556;DHT22;2290;48.674;9.018;2023-06-26T01:03:44;19.60;99.90
4556;DHT22;2290;48.674;9.018;2023-06-26T01:14:20;19.50;99.90
4556;DHT22;2290;48.674;9.018;2023-06-26T01:20:43;19.30;99.90
4556;DHT22;2290;48.674;9.018;2023-06-26T01:23:31;19.30;99.90
4556;DHT22;2290;48.674;9.018;2023-06-26T01:28:40;19.30;99.90
4556;DHT22;2290;48.674;9.018;2023-06-26T01:31:07;19.30;99.90
4556;DHT22;2290;48.674;9.018;2023-06-26T01:33:34;19.30;99.90
4556;DHT22;2290;48.674;9.018;2023-06-26T01:36:00;19.20;99.90
4556;DHT22;2290;48.674;9.018;2023-06-26T01:38:27;19.20;99.90
4556;DHT22;2290;48.674;9.018;2023-06-26T01:40:54;19.20;99.90
4556;DHT22;2290;48.674;9.018;2023-06-26T01:49:44;19.30;99.90
4556;DHT22;2290;48.674;9.018;2023-06-26T01:52:14;19.30;99.90
4556;DHT22;2290;48.674;9.018;2023-06-26T01:55:05;19.30;99.90
4556;DHT22;2290;48.674;9.018;2023-06-26T01:57:35;19.30;99.90
4556;DHT22;2290;48.674;9.018;2023-06-26T02:00:02;19.20;99.90
4556;DHT22;2290;48.674;9.018;2023-06-26T02:02:29;19.20;99.90
4556;DHT22;2290;48.674;9.018;2023-06-26T02:04:54;19.30;99.90
4556;DHT22;2290;48.674;9.018;2023-06-26T02:07:20;19.30;99.90
4556;DHT22;2290;48.674;9.018;2023-06-26T02:09:46;19.30;99.90
4556;DHT22;2290;48.674;9.018;2023-06-26T02:12:11;19.20;99.90
4556;DHT22;2290;48.674;9.018;2023-06-26T02:14:37;19.20;99.90
4556;DHT22;2290;48.674;9.018;2023-06-26T02:17:03;19.20;99.90
4556;DHT22;2290;48.674;9.018;2023-06-26T02:19:28;19.20;99.90
4556;DHT22;2290;48.674;9.018;2023-06-26T02:21:54;19.20;99.90
4556;DHT22;2290;48.674;9.018;2023-06-26T02:24:21;19.10;99.90
4556;DHT22;2290;48.674;9.018;2023-06-26T02:26:47;19.00;99.90
4556;DHT22;2290;48.674;9.018;2023-06-26T02:29:14;19.00;99.90
4556;DHT22;2290;48.674;9.018;2023-06-26T02:31:41;19.10;99.90
4556;DHT22;2290;48.674;9.018;2023-06-26T02:34:07;19.20;99.90
4556;DHT22;2290;48.674;9.018;2023-06-26T02:36:32;19.20;99.90
4556;DHT22;2290;48.674;9.018;2023-06-26T02:38:58;19.20;99.90
4556;DHT22;2290;48.674;9.018;2023-06-26T02:41:23;19.20;99.90
4556;DHT22;2290;48.674;9.018;2023-06-26T02:43:50;19.20;99.90
4556;DHT22;2290;48.674;9.018;2023-06-26T02:46:16;19.20;99.90
4556;DHT22;2290;48.674;9.018;2023-06-26T02:48:41;19.20;99.90
4556;DHT22;2290;48.674;9.018;2023-06-26T02:51:08;19.20;99.90
4556;DHT22;2290;48.674;9.018;2023-06-26T02:53:33;19.20;99.90
4556;DHT22;2290;48.674;9.018;2023-06-26T02:55:59;19.20;99.90
4556;DHT22;2290;48.674;9.018;2023-06-26T02:58:24;19.20;99.90
4556;DHT22;2290;48.674;9.018;2023-06-26T03:00:50;19.30;99.90
4556;DHT22;2290;48.674;9.018;2023-06-26T03:03:16;19.30;99.90
4556;DHT22;2290;48.674;9.018;2023-06-26T03:05:42;19.40;99.90
4556;DHT22;2290;48.674;9.018;2023-06-26T03:08:09;19.50;99.90
4556;DHT22;2290;48.674;9.018;2023-06-26T03:10:34;19.60;99.90
4556;DHT22;2290;48.674;9.018;2023-06-26T03:13:01;19.70;99.90
4556;DHT22;2290;48.674;9.018;2023-06-26T03:15:26;19.70;99.90
4556;DHT22;2290;48.674;9.018;2023-06-26T03:17:52;19.80;99.90
4556;DHT22;2290;48.674;9.018;2023-06-26T03:20:18;19.90;99.90
4556;DHT22;2290;48.674;9.018;2023-06-26T03:22:43;20.00;99.90
4556;DHT22;2290;48.674;9.018;2023-06-26T03:25:09;20.00;99.90
4556;DHT22;2290;48.674;9.018;2023-06-26T03:27:34;20.10;99.90
4556;DHT22;2290;48.674;9.018;2023-06-26T03:30:01;20.10;99.90
4556;DHT22;2290;48.674;9.018;2023-06-26T03:32:27;20.00;99.90
4556;DHT22;2290;48.674;9.018;2023-06-26T03:34:52;20.10;99.90
4556;DHT22;2290;48.674;9.018;2023-06-26T03:37:19;20.10;99.90
4556;DHT22;2290;48.674;9.018;2023-06-26T03:39:45;20.10;99.90
4556;DHT22;2290;48.674;9.018;2023-06-26T03:42:10;20.10;99.90
4556;DHT22;2290;48.674;9.018;2023-06-26T03:44:36;20.10;99.90
4556;DHT22;2290;48.674;9.018;2023-06-26T03:47:01;20.10;99.90
4556;DHT22;2290;48.674;9.018;2023-06-26T03:49:28;20.00;99.90
4556;DHT22;2290;48.674;9.018;2023-06-26T03:51:54;20.10;99.90
4556;DHT22;2290;48.674;9.018;2023-06-26T03:54:19;20.10;99.90
4556;DHT22;2290;48.674;9.018;2023-06-26T03:56:45;20.10;99.90
4556;DHT22;2290;48.674;9.018;2023-06-26T03:59:10;20.00;99.90
4556;DHT22;2290;48.674;9.018;2023-06-26T04:01:37;20.00;99.90
4556;DHT22;2290;48.674;9.018;2023-06-26T04:04:03;20.00;99.90
4556;DHT22;2290;48.674;9.018;2023-06-26T04:06:28;19.90;99.90
4556;DHT22;2290;48.674;9.018;2023-06-26T04:08:56;19.80;99.90
4556;DHT22;2290;48.674;9.018;2023-06-26T04:11:22;19.80;99.90
4556;DHT22;2290;48.674;9.018;2023-06-26T04:13:48;19.90;99.90
4556;DHT22;2290;48.674;9.018;2023-06-26T04:16:13;19.90;99.90
4556;DHT22;2290;48.674;9.018;2023-06-26T04:18:39;19.80;99.90
4556;DHT22;2290;48.674;9.018;2023-06-26T04:21:10;19.80;99.90
4556;DHT22;2290;48.674;9.018;2023-06-26T04:23:37;19.80;99.90
4556;DHT22;2290;48.674;9.018;2023-06-26T04:26:07;19.80;99.90
4556;DHT22;2290;48.674;9.018;2023-06-26T04:28:35;19.80;99.90
4556;DHT22;2290;48.674;9.018;2023-06-26T04:31:02;19.80;99.90
4556;DHT22;2290;48.674;9.018;2023-06-26T04:33:29;19.90;99.90
4556;DHT22;2290;48.674;9.018;2023-06-26T04:35:56;19.80;99.90
4556;DHT22;2290;48.674;9.018;2023-06-26T04:38:23;19.90;99.90
4556;DHT22;2290;48.674;9.018;2023-06-26T04:40:49;19.90;99.90
4556;DHT22;2290;48.674;9.018;2023-06-26T04:43:15;19.80;99.90
4556;DHT22;2290;48.674;9.018;2023-06-26T04:45:40;19.90;99.90
4556;DHT22;2290;48.674;9.018;2023-06-26T04:48:06;20.00;99.90
4556;DHT22;2290;48.674;9.018;2023-06-26T04:50:32;20.00;99.90
4556;DHT22;2290;48.674;9.018;2023-06-26T04:52:59;20.10;99.90
4556;DHT22;2290;48.674;9.018;2023-06-26T04:55:25;20.30;99.90
4556;DHT22;2290;48.674;9.018;2023-06-26T04:57:52;20.30;99.90
4556;DHT22;2290;48.674;9.018;2023-06-26T05:00:19;20.40;99.90
4556;DHT22;2290;48.674;9.018;2023-06-26T05:02:46;20.40;99.90
4556;DHT22;2290;48.674;9.018;2023-06-26T05:05:11;20.50;99.90
4556;DHT22;2290;48.674;9.018;2023-06-26T05:07:41;20.60;99.90
4556;DHT22;2290;48.674;9.018;2023-06-26T05:10:09;20.60;99.90
4556;DHT22;2290;48.674;9.018;2023-06-26T05:12:35;20.70;99.90
4556;DHT22;2290;48.674;9.018;2023-06-26T05:15:01;20.70;99.90
4556;DHT22;2290;48.674;9.018;2023-06-26T05:17:26;20.80;99.90
4556;DHT22;2290;48.674;9.018;2023-06-26T05:19:52;21.00;99.90
4556;DHT22;2290;48.674;9.018;2023-06-26T05:22:17;21.10;99.90
4556;DHT22;2290;48.674;9.018;2023-06-26T05:24:46;21.30;99.90
4556;DHT22;2290;48.674;9.018;2023-06-26T05:27:12;21.30;99.90
4556;DHT22;2290;48.674;9.018;2023-06-26T05:29:45;21.50;99.90
4556;DHT22;2290;48.674;9.018;2023-06-26T05:32:11;21.60;99.90
4556;DHT22;2290;48.674;9.018;2023-06-26T05:34:38;21.70;99.90
4556;DHT22;2290;48.674;9.018;2023-06-26T05:37:05;21.70;99.90
4556;DHT22;2290;48.674;9.018;2023-06-26T05:39:32;21.80;99.90
4556;DHT22;2290;48.674;9.018;2023-06-26T05:42:01;21.80;99.90
4556;DHT22;2290;48.674;9.018;2023-06-26T05:44:26;21.80;99.90
4556;DHT22;2290;48.674;9.018;2023-06-26T05:46:52;21.90;99.90
4556;DHT22;2290;48.674;9.018;2023-06-26T05:49:21;22.00;99.90
4556;DHT22;2290;48.674;9.018;2023-06-26T05:51:46;22.00;99.90
4556;DHT22;2290;48.674;9.018;2023-06-26T05:54:15;22.10;99.90
4556;DHT22;2290;48.674;9.018;2023-06-26T05:56:41;22.20;99.90
4556;DHT22;2290;48.674;9.018;2023-06-26T05:59:11;22.30;99.90
4556;DHT22;2290;48.674;9.018;2023-06-26T06:01:37;22.30;99.90
4556;DHT22;2290;48.674;9.018;2023-06-26T06:04:02;22.40;99.90
4556;DHT22;2290;48.674;9.018;2023-06-26T06:06:28;22.50;99.90
4556;DHT22;2290;48.674;9.018;2023-06-26T06:08:53;22.50;99.90
4556;DHT22;2290;48.674;9.018;2023-06-26T06:11:19;22.60;99.90
4556;DHT22;2290;48.674;9.018;2023-06-26T06:13:44;22.70;99.90
4556;DHT22;2290;48.674;9.018;2023-06-26T06:16:11;22.80;99.90
4556;DHT22;2290;48.674;9.018;2023-06-26T06:18:37;22.90;99.90
4556;DHT22;2290;48.674;9.018;2023-06-26T06:21:05;23.00;99.90
4556;DHT22;2290;48.674;9.018;2023-06-26T06:23:34;23.00;99.90
4556;DHT22;2290;48.674;9.018;2023-06-26T06:25:59;23.10;99.90
4556;DHT22;2290;48.674;9.018;2023-06-26T06:28:30;23.20;99.90
4556;DHT22;2290;48.674;9.018;2023-06-26T06:30:56;23.30;99.90
4556;DHT22;2290;48.674;9.018;2023-06-26T06:33:22;23.40;99.90
4556;DHT22;2290;48.674;9.018;2023-06-26T06:35:53;23.40;99.90
4556;DHT22;2290;48.674;9.018;2023-06-26T06:38:27;23.50;99.90
4556;DHT22;2290;48.674;9.018;2023-06-26T06:40:53;23.60;99.90
4556;DHT22;2290;48.674;9.018;2023-06-26T06:43:20;23.80;99.30
4556;DHT22;2290;48.674;9.018;2023-06-26T06:46:01;23.80;99.50
4556;DHT22;2290;48.674;9.018;2023-06-26T06:48:41;23.90;99.20
4556;DHT22;2290;48.674;9.018;2023-06-26T06:51:38;23.90;99.00
4556;DHT22;2290;48.674;9.018;2023-06-26T06:54:04;24.00;99.10
4556;DHT22;2290;48.674;9.018;2023-06-26T06:56:30;24.10;98.70
4556;DHT22;2290;48.674;9.018;2023-06-26T06:58:55;24.20;98.30
4556;DHT22;2290;48.674;9.018;2023-06-26T07:01:21;24.40;98.40
4556;DHT22;2290;48.674;9.018;2023-06-26T07:03:48;24.50;98.30
4556;DHT22;2290;48.674;9.018;2023-06-26T07:06:13;24.50;98.10
4556;DHT22;2290;48.674;9.018;2023-06-26T07:08:39;24.70;97.80
4556;DHT22;2290;48.674;9.018;2023-06-26T07:11:05;24.80;97.80
4556;DHT22;2290;48.674;9.018;2023-06-26T07:13:33;24.80;97.60
4556;DHT22;2290;48.674;9.018;2023-06-26T07:15:59;24.90;97.50
4556;DHT22;2290;48.674;9.018;2023-06-26T07:18:26;25.00;97.60
4556;DHT22;2290;48.674;9.018;2023-06-26T07:20:51;25.10;97.70
4556;DHT22;2290;48.674;9.018;2023-06-26T07:23:17;25.20;97.70
4556;DHT22;2290;48.674;9.018;2023-06-26T07:25:44;25.30;97.70
4556;DHT22;2290;48.674;9.018;2023-06-26T07:28:11;25.30;97.40
4556;DHT22;2290;48.674;9.018;2023-06-26T07:30:39;25.50;97.50
4556;DHT22;2290;48.674;9.018;2023-06-26T07:33:05;25.60;97.30
4556;DHT22;2290;48.674;9.018;2023-06-26T07:35:30;25.60;97.00
4556;DHT22;2290;48.674;9.018;2023-06-26T07:37:56;25.70;96.40
4556;DHT22;2290;48.674;9.018;2023-06-26T07:40:22;25.90;96.40
4556;DHT22;2290;48.674;9.018;2023-06-26T07:42:47;26.00;96.20
4556;DHT22;2290;48.674;9.018;2023-06-26T07:45:13;26.20;96.50
4556;DHT22;2290;48.674;9.018;2023-06-26T07:47:39;26.30;96.00
4556;DHT22;2290;48.674;9.018;2023-06-26T07:50:05;26.30;95.60
4556;DHT22;2290;48.674;9.018;2023-06-26T07:52:32;26.40;95.30
4556;DHT22;2290;48.674;9.018;2023-06-26T07:54:57;26.50;95.20
4556;DHT22;2290;48.674;9.018;2023-06-26T07:57:24;26.60;94.40
4556;DHT22;2290;48.674;9.018;2023-06-26T07:59:50;26.70;94.60
4556;DHT22;2290;48.674;9.018;2023-06-26T08:02:15;26.80;94.80
4556;DHT22;2290;48.674;9.018;2023-06-26T08:04:41;26.80;94.90
4556;DHT22;2290;48.674;9.018;2023-06-26T08:07:07;26.90;94.90
4556;DHT22;2290;48.674;9.018;2023-06-26T08:09:34;26.80;94.90
4556;DHT22;2290;48.674;9.018;2023-06-26T08:12:00;26.90;95.30
4556;DHT22;2290;48.674;9.018;2023-06-26T08:14:27;26.90;95.40
4556;DHT22;2290;48.674;9.018;2023-06-26T08:16:54;27.10;95.40
4556;DHT22;2290;48.674;9.018;2023-06-26T08:19:20;27.30;94.50
4556;DHT22;2290;48.674;9.018;2023-06-26T08:21:46;27.40;93.30
4556;DHT22;2290;48.674;9.018;2023-06-26T08:24:12;27.40;92.20
4556;DHT22;2290;48.674;9.018;2023-06-26T08:26:38;27.40;92.40
4556;DHT22;2290;48.674;9.018;2023-06-26T08:29:05;27.50;92.30
4556;DHT22;2290;48.674;9.018;2023-06-26T08:31:34;27.70;92.30
4556;DHT22;2290;48.674;9.018;2023-06-26T08:34:04;27.70;92.30
4556;DHT22;2290;48.674;9.018;2023-06-26T08:36:31;27.80;92.20
4556;DHT22;2290;48.674;9.018;2023-06-26T08:38:57;28.00;91.70
4556;DHT22;2290;48.674;9.018;2023-06-26T08:41:22;28.10;91.00
4556;DHT22;2290;48.674;9.018;2023-06-26T08:43:48;28.30;91.00
4556;DHT22;2290;48.674;9.018;2023-06-26T08:46:16;28.40;90.30
4556;DHT22;2290;48.674;9.018;2023-06-26T08:48:48;28.40;90.40
4556;DHT22;2290;48.674;9.018;2023-06-26T08:51:16;28.50;90.10
4556;DHT22;2290;48.674;9.018;2023-06-26T08:54:02;28.60;89.50
4556;DHT22;2290;48.674;9.018;2023-06-26T08:56:37;28.70;89.10
4556;DHT22;2290;48.674;9.018;2023-06-26T08:59:05;28.70;89.70
4556;DHT22;2290;48.674;9.018;2023-06-26T09:01:33;28.60;87.20
4556;DHT22;2290;48.674;9.018;2023-06-26T09:03:59;28.60;87.20
4556;DHT22;2290;48.674;9.018;2023-06-26T09:06:25;28.80;86.60
4556;DHT22;2290;48.674;9.018;2023-06-26T09:08:52;28.90;86.80
4556;DHT22;2290;48.674;9.018;2023-06-26T09:11:19;29.10;86.20
4556;DHT22;2290;48.674;9.018;2023-06-26T09:13:44;29.20;84.80
4556;DHT22;2290;48.674;9.018;2023-06-26T09:16:14;29.30;85.20
4556;DHT22;2290;48.674;9.018;2023-06-26T09:18:44;29.10;85.90
4556;DHT22;2290;48.674;9.018;2023-06-26T09:21:11;29.20;86.70
4556;DHT22;2290;48.674;9.018;2023-06-26T09:23:37;29.30;86.30
4556;DHT22;2290;48.674;9.018;2023-06-26T09:26:05;29.20;85.10
4556;DHT22;2290;48.674;9.018;2023-06-26T09:28:33;29.10;84.20
4556;DHT22;2290;48.674;9.018;2023-06-26T09:31:06;29.10;84.90
4556;DHT22;2290;48.674;9.018;2023-06-26T09:33:37;29.10;84.80
4556;DHT22;2290;48.674;9.018;2023-06-26T09:36:08;29.00;84.40
4556;DHT22;2290;48.674;9.018;2023-06-26T09:38:39;29.10;84.90
4556;DHT22;2290;48.674;9.018;2023-06-26T09:41:04;29.30;84.50
4556;DHT22;2290;48.674;9.018;2023-06-26T09:43:30;29.40;83.80
4556;DHT22;2290;48.674;9.018;2023-06-26T09:45:57;29.40;83.70
4556;DHT22;2290;48.674;9.018;2023-06-26T09:48:25;29.40;84.30
4556;DHT22;2290;48.674;9.018;2023-06-26T09:50:51;29.50;83.50
4556;DHT22;2290;48.674;9.018;2023-06-26T09:53:17;29.50;84.00
4556;DHT22;2290;48.674;9.018;2023-06-26T09:55:44;29.40;83.30
4556;DHT22;2290;48.674;9.018;2023-06-26T09:58:13;29.40;83.30
4556;DHT22;2290;48.674;9.018;2023-06-26T10:00:41;29.40;83.30
4556;DHT22;2290;48.674;9.018;2023-06-26T10:03:08;29.40;83.00
4556;DHT22;2290;48.674;9.018;2023-06-26T10:05:33;29.30;82.70
4556;DHT22;2290;48.674;9.018;2023-06-26T10:07:59;29.30;83.40
4556;DHT22;2290;48.674;9.018;2023-06-26T10:10:27;29.30;83.30
4556;DHT22;2290;48.674;9.018;2023-06-26T10:12:58;29.30;83.30
4556;DHT22;2290;48.674;9.018;2023-06-26T10:15:25;29.40;83.90
4556;DHT22;2290;48.674;9.018;2023-06-26T10:17:55;29.50;83.10
4556;DHT22;2290;48.674;9.018;2023-06-26T10:20:21;29.70;83.90
4556;DHT22;2290;48.674;9.018;2023-06-26T10:22:48;30.10;84.00
4556;DHT22;2290;48.674;9.018;2023-06-26T10:25:18;30.30;80.70
4556;DHT22;2290;48.674;9.018;2023-06-26T10:27:49;30.40;80.80
4556;DHT22;2290;48.674;9.018;2023-06-26T10:30:24;30.40;80.90
4556;DHT22;2290;48.674;9.018;2023-06-26T10:32:51;30.60;81.80
4556;DHT22;2290;48.674;9.018;2023-06-26T10:35:17;30.20;84.40
4556;DHT22;2290;48.674;9.018;2023-06-26T10:37:50;30.00;87.60
4556;DHT22;2290;48.674;9.018;2023-06-26T10:40:25;29.70;88.50
4556;DHT22;2290;48.674;9.018;2023-06-26T10:43:05;29.40;89.40
4556;DHT22;2290;48.674;9.018;2023-06-26T10:45:33;29.30;90.20
4556;DHT22;2290;48.674;9.018;2023-06-26T10:47:59;29.60;90.50
4556;DHT22;2290;48.674;9.018;2023-06-26T10:56:00;29.70;90.80
4556;DHT22;2290;48.674;9.018;2023-06-26T11:01:22;29.70;90.80
4556;DHT22;2290;48.674;9.018;2023-06-26T11:06:31;29.60;90.70
4556;DHT22;2290;48.674;9.018;2023-06-26T11:09:06;30.00;90.60
4556;DHT22;2290;48.674;9.018;2023-06-26T11:14:18;29.70;89.70
4556;DHT22;2290;48.674;9.018;2023-06-26T11:16:45;29.70;90.00
4556;DHT22;2290;48.674;9.018;2023-06-26T11:19:13;29.90;90.00
4556;DHT22;2290;48.674;9.018;2023-06-26T11:21:39;29.90;90.00
4556;DHT22;2290;48.674;9.018;2023-06-26T11:24:08;29.80;89.30
4556;DHT22;2290;48.674;9.018;2023-06-26T11:26:41;29.50;88.00
4556;DHT22;2290;48.674;9.018;2023-06-26T11:29:07;29.40;87.60
4556;DHT22;2290;48.674;9.018;2023-06-26T11:31:35;29.40;87.70
4556;DHT22;2290;48.674;9.018;2023-06-26T11:34:04;29.50;87.00
4556;DHT22;2290;48.674;9.018;2023-06-26T11:36:31;29.60;89.00
4556;DHT22;2290;48.674;9.018;2023-06-26T11:39:00;29.80;88.40
4556;DHT22;2290;48.674;9.018;2023-06-26T11:41:30;29.90;88.70
4556;DHT22;2290;48.674;9.018;2023-06-26T11:43:59;30.20;88.60
4556;DHT22;2290;48.674;9.018;2023-06-26T11:46:25;30.40;89.10
4556;DHT22;2290;48.674;9.018;2023-06-26T11:48:52;30.70;89.00
4556;DHT22;2290;48.674;9.018;2023-06-26T11:51:18;30.70;88.00
4556;DHT22;2290;48.674;9.018;2023-06-26T11:53:46;30.60;89.20
4556;DHT22;2290;48.674;9.018;2023-06-26T11:56:13;30.60;89.10
4556;DHT22;2290;48.674;9.018;2023-06-26T11:59:02;30.50;89.70
4556;DHT22;2290;48.674;9.018;2023-06-26T12:01:39;30.80;89.50
4556;DHT22;2290;48.674;9.018;2023-06-26T12:04:11;30.90;89.00
4556;DHT22;2290;48.674;9.018;2023-06-26T12:06:38;31.00;87.80
4556;DHT22;2290;48.674;9.018;2023-06-26T12:09:07;30.90;87.80
4556;DHT22;2290;48.674;9.018;2023-06-26T12:11:35;30.90;88.80
4556;DHT22;2290;48.674;9.018;2023-06-26T12:14:02;30.90;89.70
4556;DHT22;2290;48.674;9.018;2023-06-26T12:16:30;31.00;89.40
4556;DHT22;2290;48.674;9.018;2023-06-26T12:19:03;30.80;89.80
4556;DHT22;2290;48.674;9.018;2023-06-26T12:24:12;30.80;90.50
4556;DHT22;2290;48.674;9.018;2023-06-26T12:26:38;30.90;90.70
4556;DHT22;2290;48.674;9.018;2023-06-26T12:29:15;30.90;90.50
4556;DHT22;2290;48.674;9.018;2023-06-26T12:31:46;31.00;90.80
4556;DHT22;2290;48.674;9.018;2023-06-26T12:34:14;31.00;90.60
4556;DHT22;2290;48.674;9.018;2023-06-26T12:36:47;30.70;90.90
4556;DHT22;2290;48.674;9.018;2023-06-26T12:39:19;30.60;91.20
4556;DHT22;2290;48.674;9.018;2023-06-26T12:42:02;30.70;91.20
4556;DHT22;2290;48.674;9.018;2023-06-26T12:44:32;30.80;90.80
4556;DHT22;2290;48.674;9.018;2023-06-26T12:47:00;30.90;90.20
4556;DHT22;2290;48.674;9.018;2023-06-26T12:49:30;30.80;90.50
4556;DHT22;2290;48.674;9.018;2023-06-26T12:51:58;30.90;90.90
4556;DHT22;2290;48.674;9.018;2023-06-26T12:54:24;31.20;90.80
4556;DHT22;2290;48.674;9.018;2023-06-26T12:56:52;31.30;90.50
4556;DHT22;2290;48.674;9.018;2023-06-26T12:59:17;31.40;90.80
4556;DHT22;2290;48.674;9.018;2023-06-26T13:01:43;31.20;90.20
4556;DHT22;2290;48.674;9.018;2023-06-26T13:04:08;31.00;91.10
4556;DHT22;2290;48.674;9.018;2023-06-26T13:06:35;31.10;90.90
4556;DHT22;2290;48.674;9.018;2023-06-26T13:09:02;31.00;90.30
4556;DHT22;2290;48.674;9.018;2023-06-26T13:11:33;31.20;90.80
4556;DHT22;2290;48.674;9.018;2023-06-26T13:14:00;31.20;90.50
4556;DHT22;2290;48.674;9.018;2023-06-26T13:16:26;31.30;90.30
4556;DHT22;2290;48.674;9.018;2023-06-26T13:18:51;31.30;90.10
4556;DHT22;2290;48.674;9.018;2023-06-26T13:21:17;30.90;90.10
4556;DHT22;2290;48.674;9.018;2023-06-26T13:23:45;30.30;90.30
4556;DHT22;2290;48.674;9.018;2023-06-26T13:26:11;30.10;90.60
4556;DHT22;2290;48.674;9.018;2023-06-26T13:28:37;29.80;90.70
4556;DHT22;2290;48.674;9.018;2023-06-26T13:31:04;30.10;90.90
4556;DHT22;2290;48.674;9.018;2023-06-26T13:33:30;30.40;90.30
4556;DHT22;2290;48.674;9.018;2023-06-26T13:35:56;30.20;90.40
4556;DHT22;2290;48.674;9.018;2023-06-26T13:38:25;30.40;90.60
4556;DHT22;2290;48.674;9.018;2023-06-26T13:40:55;30.60;89.50
4556;DHT22;2290;48.674;9.018;2023-06-26T13:43:27;30.50;90.20
4556;DHT22;2290;48.674;9.018;2023-06-26T13:45:53;30.60;89.40
4556;DHT22;2290;48.674;9.018;2023-06-26T13:48:19;30.70;88.90
4556;DHT22;2290;48.674;9.018;2023-06-26T13:50:46;30.70;88.90
4556;DHT22;2290;48.674;9.018;2023-06-26T13:53:12;30.70;88.50
4556;DHT22;2290;48.674;9.018;2023-06-26T13:55:40;30.50;88.40
4556;DHT22;2290;48.674;9.018;2023-06-26T13:58:05;30.30;87.70
4556;DHT22;2290;48.674;9.018;2023-06-26T14:00:31;30.10;88.70
4556;DHT22;2290;48.674;9.018;2023-06-26T14:02:59;30.30;86.80
4556;DHT22;2290;48.674;9.018;2023-06-26T14:05:24;30.00;86.60
4556;DHT22;2290;48.674;9.018;2023-06-26T14:07:50;29.80;87.00
4556;DHT22;2290;48.674;9.018;2023-06-26T14:10:16;30.00;87.10
4556;DHT22;2290;48.674;9.018;2023-06-26T14:12:41;30.20;86.60
4556;DHT22;2290;48.674;9.018;2023-06-26T14:15:07;30.10;85.20
4556;DHT22;2290;48.674;9.018;2023-06-26T14:17:33;30.10;85.00
4556;DHT22;2290;48.674;9.018;2023-06-26T14:19:59;30.00;85.00
4556;DHT22;2290;48.674;9.018;2023-06-26T14:22:24;29.90;85.20
4556;DHT22;2290;48.674;9.018;2023-06-26T14:24:50;30.00;86.00
4556;DHT22;2290;48.674;9.018;2023-06-26T14:27:16;30.00;85.30
4556;DHT22;2290;48.674;9.018;2023-06-26T14:29:41;29.90;85.20
4556;DHT22;2290;48.674;9.018;2023-06-26T14:32:07;30.00;84.60
4556;DHT22;2290;48.674;9.018;2023-06-26T14:34:33;30.20;85.10
4556;DHT22;2290;48.674;9.018;2023-06-26T14:36:58;30.60;83.80
4556;DHT22;2290;48.674;9.018;2023-06-26T14:39:24;30.60;83.10
4556;DHT22;2290;48.674;9.018;2023-06-26T14:41:50;30.80;83.60
4556;DHT22;2290;48.674;9.018;2023-06-26T14:44:16;30.80;82.20
4556;DHT22;2290;48.674;9.018;2023-06-26T14:46:41;30.90;83.20
4556;DHT22;2290;48.674;9.018;2023-06-26T14:49:08;30.80;81.40
4556;DHT22;2290;48.674;9.018;2023-06-26T14:51:33;30.80;81.80
4556;DHT22;2290;48.674;9.018;2023-06-26T14:54:00;30.70;81.20
4556;DHT22;2290;48.674;9.018;2023-06-26T14:56:25;30.40;82.70
4556;DHT22;2290;48.674;9.018;2023-06-26T14:58:51;30.50;81.60
4556;DHT22;2290;48.674;9.018;2023-06-26T15:01:18;30.40;82.10
4556;DHT22;2290;48.674;9.018;2023-06-26T15:03:46;30.40;83.80
4556;DHT22;2290;48.674;9.018;2023-06-26T15:06:11;30.30;83.20
4556;DHT22;2290;48.674;9.018;2023-06-26T15:08:37;29.90;83.90
4556;DHT22;2290;48.674;9.018;2023-06-26T15:11:03;29.80;83.90
4556;DHT22;2290;48.674;9.018;2023-06-26T15:13:28;29.70;83.90
4556;DHT22;2290;48.674;9.018;2023-06-26T15:15:54;29.70;84.30
4556;DHT22;2290;48.674;9.018;2023-06-26T15:18:20;29.90;83.60
4556;DHT22;2290;48.674;9.018;2023-06-26T15:20:45;29.60;83.70
4556;DHT22;2290;48.674;9.018;2023-06-26T15:23:11;29.60;84.20
4556;DHT22;2290;48.674;9.018;2023-06-26T15:25:38;29.50;84.30
4556;DHT22;2290;48.674;9.018;2023-06-26T15:28:05;29.60;85.50
4556;DHT22;2290;48.674;9.018;2023-06-26T15:30:32;29.90;84.00
4556;DHT22;2290;48.674;9.018;2023-06-26T15:32:57;29.90;84.60
4556;DHT22;2290;48.674;9.018;2023-06-26T15:35:24;30.00;84.00
4556;DHT22;2290;48.674;9.018;2023-06-26T15:37:51;29.90;83.40
4556;DHT22;2290;48.674;9.018;2023-06-26T15:40:17;29.60;83.40
4556;DHT22;2290;48.674;9.018;2023-06-26T15:42:47;29.00;84.20
4556;DHT22;2290;48.674;9.018;2023-06-26T15:45:13;28.80;84.80
4556;DHT22;2290;48.674;9.018;2023-06-26T15:47:39;28.60;85.20
4556;DHT22;2290;48.674;9.018;2023-06-26T15:50:09;28.70;84.70
4556;DHT22;2290;48.674;9.018;2023-06-26T15:52:34;28.30;85.70
4556;DHT22;2290;48.674;9.018;2023-06-26T15:55:00;28.20;85.10
4556;DHT22;2290;48.674;9.018;2023-06-26T15:57:25;28.00;85.70
4556;DHT22;2290;48.674;9.018;2023-06-26T15:59:51;27.80;86.60
4556;DHT22;2290;48.674;9.018;2023-06-26T16:02:16;27.60;86.70
4556;DHT22;2290;48.674;9.018;2023-06-26T16:04:42;27.40;87.70
4556;DHT22;2290;48.674;9.018;2023-06-26T16:07:08;27.30;87.20
4556;DHT22;2290;48.674;9.018;2023-06-26T16:09:33;27.30;87.40
4556;DHT22;2290;48.674;9.018;2023-06-26T16:11:59;27.20;87.50
4556;DHT22;2290;48.674;9.018;2023-06-26T16:14:24;27.00;87.70
4556;DHT22;2290;48.674;9.018;2023-06-26T16:16:50;26.80;88.00
4556;DHT22;2290;48.674;9.018;2023-06-26T16:19:15;26.80;89.00
4556;DHT22;2290;48.674;9.018;2023-06-26T16:21:41;26.80;89.10
4556;DHT22;2290;48.674;9.018;2023-06-26T16:24:06;26.90;88.90
4556;DHT22;2290;48.674;9.018;2023-06-26T16:26:33;26.90;87.40
4556;DHT22;2290;48.674;9.018;2023-06-26T16:28:59;26.80;87.20
4556;DHT22;2290;48.674;9.018;2023-06-26T16:31:26;26.80;87.20
4556;DHT22;2290;48.674;9.018;2023-06-26T16:33:51;26.80;86.80
4556;DHT22;2290;48.674;9.018;2023-06-26T16:36:17;26.70;85.50
4556;DHT22;2290;48.674;9.018;2023-06-26T16:38:43;26.60;85.90
4556;DHT22;2290;48.674;9.018;2023-06-26T16:41:09;26.60;85.40
4556;DHT22;2290;48.674;9.018;2023-06-26T16:43:35;26.70;83.40
4556;DHT22;2290;48.674;9.018;2023-06-26T16:46:00;26.80;82.40
4556;DHT22;2290;48.674;9.018;2023-06-26T16:48:27;26.80;82.10
4556;DHT22;2290;48.674;9.018;2023-06-26T16:50:52;26.80;82.00
4556;DHT22;2290;48.674;9.018;2023-06-26T16:53:18;27.00;81.40
4556;DHT22;2290;48.674;9.018;2023-06-26T16:55:44;27.20;81.10
4556;DHT22;2290;48.674;9.018;2023-06-26T16:58:10;27.30;79.80
4556;DHT22;2290;48.674;9.018;2023-06-26T17:00:36;27.20;78.00
4556;DHT22;2290;48.674;9.018;2023-06-26T17:03:04;26.90;78.60
4556;DHT22;2290;48.674;9.018;2023-06-26T17:05:29;26.90;78.80
4556;DHT22;2290;48.674;9.018;2023-06-26T17:07:55;26.80;78.60
4556;DHT22;2290;48.674;9.018;2023-06-26T17:10:20;26.80;78.70
4556;DHT22;2290;48.674;9.018;2023-06-26T17:12:46;26.90;78.90
4556;DHT22;2290;48.674;9.018;2023-06-26T17:15:11;26.90;78.30
4556;DHT22;2290;48.674;9.018;2023-06-26T17:17:37;26.90;78.60